Time;durP1;ratioP1;P1;durP2;ratioP2;P2;SDS_P1;SDS_P2;PMS_P1;PMS_P2;Temp;Humidity;BMP_temperature;BMP_pressure;BME280_temperature;BME280_humidity;BME280_pressure;Samples;Min_cycle;Max_cycle;Signal;HPM_P1;HPM_P2
2024/02/14 00:01:11;;;;;;;9.88;4.75;;;11.30;61.70;;;;;;5072369;28;20039;-70
2024/02/14 00:03:38;;;;;;;7.70;4.53;;;11.30;61.80;;;;;;5073092;28;20029;-72
2024/02/14 00:06:05;;;;;;;8.20;4.85;;;11.30;61.80;;;;;;5072838;28;20045;-71
2024/02/14 00:08:31;;;;;;;8.38;4.45;;;11.30;61.90;;;;;;5073351;28;20028;-71
2024/02/14 00:10:57;;;;;;;8.10;4.30;;;11.30;61.90;;;;;;5075433;28;20521;-73
2024/02/14 00:13:22;;;;;;;6.75;4.13;;;11.30;61.90;;;;;;5094046;28;20039;-72
2024/02/14 00:15:48;;;;;;;7.15;4.13;;;11.30;62.00;;;;;;5086410;28;20020;-72
2024/02/14 00:18:15;;;;;;;7.32;4.25;;;11.30;62.00;;;;;;5073010;28;20371;-71
2024/02/14 00:20:41;;;;;;;6.88;4.07;;;11.30;62.00;;;;;;5073087;28;20124;-73
2024/02/14 00:23:06;;;;;;;9.02;4.28;;;11.20;62.00;;;;;;5072352;28;20488;-72
2024/02/14 00:25:32;;;;;;;6.40;3.90;;;11.20;62.00;;;;;;5072258;28;20055;-72
2024/02/14 00:28:00;;;;;;;6.43;3.40;;;11.10;61.90;;;;;;5072200;28;20431;-71
2024/02/14 00:30:26;;;;;;;6.47;3.88;;;11.10;62.00;;;;;;5072095;28;20040;-70
2024/02/14 00:32:52;;;;;;;6.50;3.78;;;11.10;61.90;;;;;;5072488;28;20398;-72
2024/02/14 00:35:18;;;;;;;6.18;3.40;;;11.10;61.80;;;;;;5072091;28;20055;-72
2024/02/14 00:37:44;;;;;;;7.43;4.00;;;11.10;61.70;;;;;;5072377;28;20040;-71
2024/02/14 00:40:11;;;;;;;7.30;3.50;;;11.10;61.80;;;;;;5070313;28;20036;-72
2024/02/14 00:42:36;;;;;;;7.47;3.60;;;11.10;61.80;;;;;;5072133;28;20068;-71
2024/02/14 00:45:03;;;;;;;6.95;3.75;;;11.10;61.80;;;;;;5072196;28;20072;-70
2024/02/14 00:47:28;;;;;;;8.13;3.92;;;11.10;62.00;;;;;;5070576;28;20492;-72
2024/02/14 00:49:54;;;;;;;6.95;3.60;;;11.10;61.80;;;;;;5071868;28;20037;-72
2024/02/14 00:52:21;;;;;;;8.43;3.60;;;11.10;61.80;;;;;;5072092;28;20040;-72
2024/02/14 00:54:47;;;;;;;5.45;3.33;;;11.10;61.80;;;;;;5072247;28;20029;-71
2024/02/14 00:57:13;;;;;;;8.65;3.72;;;11.10;61.80;;;;;;5071913;28;20037;-71
2024/02/14 00:59:38;;;;;;;5.40;3.40;;;11.10;61.90;;;;;;5071774;28;20070;-72
2024/02/14 01:02:04;;;;;;;5.32;3.20;;;11.10;62.00;;;;;;5075598;28;20399;-71
2024/02/14 01:04:30;;;;;;;5.05;3.00;;;11.00;61.90;;;;;;5075219;28;20029;-72
2024/02/14 01:06:56;;;;;;;6.07;3.20;;;11.00;62.20;;;;;;5075580;28;20051;-71
2024/02/14 01:09:21;;;;;;;5.05;3.30;;;11.00;62.10;;;;;;5075506;28;20021;-71
2024/02/14 01:11:48;;;;;;;7.90;3.42;;;11.00;62.30;;;;;;5073895;28;20048;-71
2024/02/14 01:14:14;;;;;;;5.38;3.13;;;10.90;62.10;;;;;;5075296;28;20029;-72
2024/02/14 01:16:44;;;;;;;6.45;3.55;;;10.90;62.40;;;;;;5075151;28;20028;-72
2024/02/14 01:19:10;;;;;;;5.93;3.70;;;10.80;62.30;;;;;;5075001;28;20055;-71
2024/02/14 01:21:36;;;;;;;6.60;3.50;;;10.80;62.60;;;;;;5075135;28;20086;-72
2024/02/14 01:24:02;;;;;;;7.18;3.60;;;10.70;62.60;;;;;;5074942;28;20036;-71
2024/02/14 01:26:28;;;;;;;6.07;3.53;;;10.70;62.80;;;;;;5075471;28;20059;-71
2024/02/14 01:28:53;;;;;;;8.43;3.50;;;10.70;62.90;;;;;;5075365;28;20028;-71
2024/02/14 01:31:20;;;;;;;7.55;4.03;;;10.70;63.10;;;;;;5075136;28;20040;-71
2024/02/14 01:33:46;;;;;;;5.90;3.50;;;10.70;63.10;;;;;;5075288;28;20062;-71
2024/02/14 01:36:12;;;;;;;8.02;3.90;;;10.60;63.30;;;;;;5075318;28;20033;-71
2024/02/14 01:38:37;;;;;;;8.95;3.30;;;10.70;63.50;;;;;;5074684;28;20104;-72
2024/02/14 01:41:05;;;;;;;6.00;3.60;;;10.60;63.40;;;;;;5075082;28;20037;-70
2024/02/14 01:43:31;;;;;;;5.70;3.55;;;10.60;63.50;;;;;;5074814;28;20040;-73
2024/02/14 01:46:07;;;;;;;6.95;3.45;;;10.50;63.60;;;;;;5074734;28;20049;-72
2024/02/14 01:48:34;;;;;;;7.50;3.85;;;10.50;64.00;;;;;;5074829;28;20051;-71
2024/02/14 01:51:02;;;;;;;5.82;3.25;;;10.50;64.00;;;;;;5074744;28;20107;-71
2024/02/14 01:53:30;;;;;;;7.90;4.10;;;10.50;64.10;;;;;;5074642;28;20040;-71
2024/02/14 01:55:58;;;;;;;7.68;3.80;;;10.50;64.20;;;;;;5073566;28;20048;-71
2024/02/14 01:58:24;;;;;;;7.35;4.00;;;10.50;64.30;;;;;;5074504;28;20046;-71
2024/02/14 02:00:56;;;;;;;7.03;4.03;;;10.50;64.20;;;;;;5074502;28;20032;-72
2024/02/14 02:03:25;;;;;;;7.45;3.63;;;10.50;64.20;;;;;;5074349;28;20056;-72
2024/02/14 02:05:54;;;;;;;8.85;3.35;;;10.50;64.30;;;;;;5074300;28;20044;-73
2024/02/14 02:08:21;;;;;;;7.40;3.40;;;10.40;64.30;;;;;;5074319;28;20116;-70
2024/02/14 02:10:47;;;;;;;8.45;3.75;;;10.40;64.50;;;;;;5074439;28;20036;-72
2024/02/14 02:13:15;;;;;;;5.72;3.58;;;10.30;64.50;;;;;;5073995;28;20054;-72
2024/02/14 02:15:44;;;;;;;6.30;3.92;;;10.30;64.50;;;;;;5074012;28;20037;-72
2024/02/14 02:18:10;;;;;;;7.05;4.10;;;10.30;64.80;;;;;;5073966;28;20046;-72
2024/02/14 02:20:36;;;;;;;7.60;3.90;;;10.30;64.90;;;;;;5074075;28;20107;-71
2024/02/14 02:23:02;;;;;;;7.55;3.97;;;10.30;65.00;;;;;;5074133;28;20047;-72
2024/02/14 02:25:28;;;;;;;6.28;3.72;;;10.20;64.90;;;;;;5073871;28;20045;-72
2024/02/14 02:27:56;;;;;;;11.07;4.28;;;10.20;65.10;;;;;;5073774;28;20029;-71
2024/02/14 02:30:22;;;;;;;5.63;3.50;;;10.20;65.10;;;;;;5072770;28;20041;-71
2024/02/14 02:32:50;;;;;;;6.72;4.18;;;10.10;65.30;;;;;;5073822;28;20029;-71
2024/02/14 02:35:15;;;;;;;7.60;3.80;;;10.10;65.20;;;;;;5073772;28;20028;-71
2024/02/14 02:37:42;;;;;;;7.80;3.80;;;10.10;65.30;;;;;;5073626;28;20623;-72
2024/02/14 02:40:10;;;;;;;7.55;3.90;;;10.10;65.50;;;;;;5073329;28;20029;-71
2024/02/14 02:42:36;;;;;;;6.25;3.80;;;10.00;65.50;;;;;;5073486;28;20040;-72
2024/02/14 02:45:05;;;;;;;7.05;3.80;;;10.00;65.60;;;;;;5073315;28;20036;-72
2024/02/14 02:47:33;;;;;;;5.93;3.67;;;10.00;65.70;;;;;;5073418;28;20054;-72
2024/02/14 02:50:01;;;;;;;8.30;4.95;;;10.00;65.80;;;;;;5073641;28;20021;-73
2024/02/14 02:52:27;;;;;;;8.25;4.10;;;10.00;65.80;;;;;;5073512;28;20083;-72
2024/02/14 02:54:53;;;;;;;6.47;3.65;;;10.00;65.70;;;;;;5073373;28;20037;-71
2024/02/14 02:57:19;;;;;;;8.05;3.55;;;10.00;65.90;;;;;;5072082;28;20052;-71
2024/02/14 02:59:47;;;;;;;8.88;3.95;;;10.00;65.80;;;;;;5073096;28;20045;-71
2024/02/14 03:02:14;;;;;;;6.70;4.10;;;9.90;66.90;;;;;;5071900;28;20443;-71
2024/02/14 03:04:41;;;;;;;8.77;3.80;;;9.80;66.80;;;;;;5073153;28;20059;-71
2024/02/14 03:07:08;;;;;;;7.20;3.75;;;9.90;67.10;;;;;;5072294;28;20072;-71
2024/02/14 03:09:35;;;;;;;6.22;3.72;;;9.80;67.00;;;;;;5073172;28;20039;-72
2024/02/14 03:12:03;;;;;;;7.43;4.00;;;9.90;67.10;;;;;;5072843;28;20115;-72
2024/02/14 03:14:32;;;;;;;7.05;3.55;;;9.80;67.10;;;;;;5071349;28;20127;-72
2024/02/14 03:17:04;;;;;;;8.80;4.07;;;9.80;67.20;;;;;;5072951;28;20036;-70
2024/02/14 03:19:31;;;;;;;6.82;4.20;;;9.70;67.20;;;;;;5072788;28;20075;-70
2024/02/14 03:21:56;;;;;;;7.50;4.40;;;9.70;67.30;;;;;;5072665;28;20028;-71
2024/02/14 03:24:25;;;;;;;8.98;4.00;;;9.70;67.30;;;;;;5072274;28;20063;-70
2024/02/14 03:26:53;;;;;;;7.55;4.53;;;9.60;67.00;;;;;;5072791;28;20041;-72
2024/02/14 03:29:19;;;;;;;7.25;3.85;;;9.60;67.00;;;;;;5072507;28;20029;-71
2024/02/14 03:31:45;;;;;;;6.07;3.42;;;9.60;66.80;;;;;;5071382;28;20218;-72
2024/02/14 03:34:11;;;;;;;7.22;4.50;;;9.60;67.20;;;;;;5072599;28;20025;-72
2024/02/14 03:36:38;;;;;;;8.90;4.32;;;9.60;67.10;;;;;;5072709;28;20073;-72
2024/02/14 03:39:05;;;;;;;6.10;4.03;;;9.50;67.20;;;;;;5072398;28;20059;-72
2024/02/14 03:41:31;;;;;;;6.45;4.25;;;9.50;67.20;;;;;;5072583;28;20040;-71
2024/02/14 03:44:01;;;;;;;6.70;4.25;;;9.40;67.10;;;;;;5072298;28;20028;-72
2024/02/14 03:46:27;;;;;;;6.80;4.70;;;9.50;67.10;;;;;;5072399;28;20123;-72
2024/02/14 03:48:54;;;;;;;6.80;4.45;;;9.40;67.00;;;;;;5071224;28;20044;-72
2024/02/14 03:51:20;;;;;;;7.45;4.80;;;9.40;66.90;;;;;;5072309;28;20385;-72
2024/02/14 03:53:46;;;;;;;10.35;5.13;;;9.40;66.90;;;;;;5072422;28;20032;-72
2024/02/14 03:56:16;;;;;;;8.75;4.75;;;9.40;67.10;;;;;;5072294;28;20497;-72
2024/02/14 03:58:42;;;;;;;10.25;4.93;;;9.40;67.00;;;;;;5072101;28;20049;-72
2024/02/14 04:01:07;;;;;;;7.93;4.75;;;9.40;66.90;;;;;;5072221;28;20056;-72
2024/02/14 04:03:33;;;;;;;6.90;4.25;;;9.40;66.80;;;;;;5071268;28;20477;-71
2024/02/14 04:05:59;;;;;;;9.77;4.85;;;9.40;67.00;;;;;;5072400;28;20094;-72
2024/02/14 04:08:25;;;;;;;7.25;4.50;;;9.40;66.90;;;;;;5071566;28;20033;-72
2024/02/14 04:10:51;;;;;;;7.85;4.75;;;9.40;67.00;;;;;;5072214;28;20036;-71
2024/02/14 04:13:16;;;;;;;9.90;4.57;;;9.50;67.00;;;;;;5072363;28;20035;-71
2024/02/14 04:15:46;;;;;;;9.07;4.90;;;9.40;66.90;;;;;;5072118;28;20474;-71
2024/02/14 04:18:12;;;;;;;7.57;4.70;;;9.40;66.80;;;;;;5072258;28;20422;-71
2024/02/14 04:20:38;;;;;;;7.65;4.95;;;9.40;67.20;;;;;;5071939;28;20108;-71
2024/02/14 04:23:07;;;;;;;8.02;4.75;;;9.30;67.10;;;;;;5071863;28;20063;-71
2024/02/14 04:25:33;;;;;;;7.45;4.72;;;9.30;67.20;;;;;;5072001;28;20056;-71
2024/02/14 04:28:00;;;;;;;8.13;4.93;;;9.30;67.20;;;;;;5072164;28;20551;-71
2024/02/14 04:30:26;;;;;;;10.40;5.40;;;9.40;67.40;;;;;;5072131;28;20047;-74
2024/02/14 04:32:51;;;;;;;8.38;4.90;;;9.30;67.40;;;;;;5072016;28;20032;-71
2024/02/14 04:35:19;;;;;;;6.75;4.47;;;9.30;67.20;;;;;;5073241;28;20043;-71
2024/02/14 04:37:47;;;;;;;6.55;4.15;;;9.30;67.30;;;;;;5076370;28;20041;-72
2024/02/14 04:40:14;;;;;;;9.55;4.82;;;9.30;67.50;;;;;;5076303;28;20169;-71
2024/02/14 04:42:40;;;;;;;7.20;4.32;;;9.30;67.50;;;;;;5075966;28;20191;-72
2024/02/14 04:45:06;;;;;;;7.35;4.30;;;9.20;67.40;;;;;;5076393;28;20138;-72
2024/02/14 04:47:32;;;;;;;6.97;4.20;;;9.20;67.70;;;;;;5076383;28;20043;-72
2024/02/14 04:49:58;;;;;;;6.30;3.95;;;9.20;67.60;;;;;;5077112;28;20082;-71
2024/02/14 04:52:24;;;;;;;7.45;4.50;;;9.10;67.70;;;;;;5077557;28;20032;-71
2024/02/14 04:54:49;;;;;;;7.07;4.32;;;9.10;67.70;;;;;;5076033;28;20040;-71
2024/02/14 04:57:15;;;;;;;7.43;4.43;;;9.10;67.70;;;;;;5076077;28;20535;-72
2024/02/14 23:00:24;;;;;;;28.05;18.83;;;11.90;71.60;;;;;;5096897;23;20118;-75
2024/02/14 23:02:49;;;;;;;31.58;18.10;;;11.90;71.50;;;;;;5075260;28;20068;-73
2024/02/14 23:05:19;;;;;;;30.42;19.27;;;11.80;71.30;;;;;;5073352;28;20064;-72
2024/02/14 23:07:47;;;;;;;37.58;19.02;;;11.80;71.30;;;;;;5073594;28;20125;-72
2024/02/14 23:10:15;;;;;;;31.73;20.05;;;11.70;71.00;;;;;;5073566;28;20473;-73
2024/02/14 23:12:42;;;;;;;32.60;20.33;;;11.70;71.10;;;;;;5080097;28;20024;-74
2024/02/14 23:15:08;;;;;;;36.40;19.98;;;11.60;70.70;;;;;;5073362;28;20043;-72
2024/02/14 23:17:35;;;;;;;33.63;19.08;;;11.60;70.70;;;;;;5055231;28;20044;-73
2024/02/14 23:20:01;;;;;;;30.17;18.92;;;11.60;70.90;;;;;;5073742;28;20385;-72
2024/02/14 23:22:27;;;;;;;31.52;19.30;;;11.50;70.40;;;;;;5073071;28;20025;-73
2024/02/14 23:24:54;;;;;;;39.22;19.60;;;11.50;70.20;;;;;;5072251;28;20040;-72
2024/02/14 23:27:22;;;;;;;33.80;20.27;;;11.50;70.10;;;;;;5073064;28;20036;-72
2024/02/14 23:29:48;;;;;;;33.78;20.80;;;11.50;70.10;;;;;;5074464;28;20059;-75
2024/02/14 23:32:14;;;;;;;32.92;21.08;;;11.40;69.80;;;;;;5074639;28;20037;-72
2024/02/14 23:34:39;;;;;;;32.42;20.15;;;11.40;69.80;;;;;;5073216;28;20032;-73
2024/02/14 23:37:05;;;;;;;35.47;20.50;;;11.40;69.60;;;;;;5086523;28;20032;-73
2024/02/14 23:39:31;;;;;;;31.80;20.35;;;11.30;69.30;;;;;;5074339;28;20504;-73
2024/02/14 23:41:56;;;;;;;31.35;19.73;;;11.30;69.20;;;;;;5093491;28;20126;-73
2024/02/14 23:44:23;;;;;;;30.25;20.60;;;11.30;68.70;;;;;;5093049;28;20097;-72
2024/02/14 23:46:48;;;;;;;32.58;20.65;;;11.20;68.60;;;;;;5074741;28;20436;-73
2024/02/14 23:49:14;;;;;;;33.33;18.58;;;11.20;68.80;;;;;;5092985;28;20106;-72
2024/02/14 23:51:40;;;;;;;32.60;18.38;;;11.30;68.70;;;;;;5092934;28;20036;-72
2024/02/14 23:54:06;;;;;;;25.48;17.40;;;11.30;68.50;;;;;;5092960;28;20028;-73
2024/02/14 23:56:32;;;;;;;33.33;17.38;;;11.30;68.30;;;;;;5092852;28;20101;-73
2024/02/14 23:58:58;;;;;;;25.98;17.15;;;11.30;68.00;;;;;;5092959;28;20064;-72
